Terminal Aerodrome Forecast
Issued by NWS

Home | Current Version | Previous Version | Text Only | Print | Product List | Glossary On
Versions: 1 2 3 4 5 6 7 8 9 10 11 12 13 14 15
000
FTUS44 KEPZ 242111 AAA
TAFTCS
TAF AMD
KTCS 242111Z 2421/2518 19012G22KT P6SM SCT250
     FM250300 29007KT P6SM SKC
     FM251600 07007KT P6SM SKC=

USA.gov is the U.S. government's official web portal to all federal, state and local government web resources and services.